sensor_id;sensor_type;location;lat;lon;timestamp;P1;durP1;ratioP1;P2;durP2;ratioP2
31402;SDS011;18039;52.188;21.024;2022-08-21T00:00:46;8.02;;;4.30;;
31402;SDS011;18039;52.188;21.024;2022-08-21T00:03:14;8.43;;;4.28;;
31402;SDS011;18039;52.188;21.024;2022-08-21T00:05:47;9.73;;;4.88;;
31402;SDS011;18039;52.188;21.024;2022-08-21T00:08:16;6.50;;;4.07;;
31402;SDS011;18039;52.188;21.024;2022-08-21T00:10:45;11.60;;;4.65;;
31402;SDS011;18039;52.188;21.024;2022-08-21T00:13:12;6.82;;;4.20;;
31402;SDS011;18039;52.188;21.024;2022-08-21T00:15:45;8.85;;;4.30;;
31402;SDS011;18039;52.188;21.024;2022-08-21T00:18:13;6.70;;;4.30;;
31402;SDS011;18039;52.188;21.024;2022-08-21T00:20:41;9.50;;;4.60;;
31402;SDS011;18039;52.188;21.024;2022-08-21T00:23:09;6.88;;;4.32;;
31402;SDS011;18039;52.188;21.024;2022-08-21T00:25:37;7.68;;;4.30;;
31402;SDS011;18039;52.188;21.024;2022-08-21T00:28:04;5.45;;;4.07;;
31402;SDS011;18039;52.188;21.024;2022-08-21T00:30:33;8.50;;;5.13;;
31402;SDS011;18039;52.188;21.024;2022-08-21T00:33:01;9.40;;;4.72;;
31402;SDS011;18039;52.188;21.024;2022-08-21T00:35:32;6.85;;;4.82;;
31402;SDS011;18039;52.188;21.024;2022-08-21T00:38:03;8.85;;;4.65;;
31402;SDS011;18039;52.188;21.024;2022-08-21T00:40:37;6.03;;;4.47;;
31402;SDS011;18039;52.188;21.024;2022-08-21T00:43:16;7.55;;;4.70;;
31402;SDS011;18039;52.188;21.024;2022-08-21T00:45:46;8.55;;;4.65;;
31402;SDS011;18039;52.188;21.024;2022-08-21T00:48:13;5.45;;;4.10;;
31402;SDS011;18039;52.188;21.024;2022-08-21T00:50:48;7.57;;;4.40;;
31402;SDS011;18039;52.188;21.024;2022-08-21T00:53:19;7.05;;;4.50;;
31402;SDS011;18039;52.188;21.024;2022-08-21T00:55:46;11.82;;;4.78;;
31402;SDS011;18039;52.188;21.024;2022-08-21T00:58:14;8.00;;;4.07;;
31402;SDS011;18039;52.188;21.024;2022-08-21T01:00:46;8.73;;;5.22;;
31402;SDS011;18039;52.188;21.024;2022-08-21T01:03:16;7.47;;;4.13;;
31402;SDS011;18039;52.188;21.024;2022-08-21T01:05:49;11.05;;;4.40;;
31402;SDS011;18039;52.188;21.024;2022-08-21T01:08:17;9.38;;;4.95;;
31402;SDS011;18039;52.188;21.024;2022-08-21T01:10:44;6.57;;;4.38;;
31402;SDS011;18039;52.188;21.024;2022-08-21T01:13:18;7.15;;;4.45;;
31402;SDS011;18039;52.188;21.024;2022-08-21T01:15:51;6.22;;;4.28;;
31402;SDS011;18039;52.188;21.024;2022-08-21T01:18:20;7.47;;;4.55;;
31402;SDS011;18039;52.188;21.024;2022-08-21T01:23:29;7.38;;;4.63;;
31402;SDS011;18039;52.188;21.024;2022-08-21T01:25:56;5.80;;;4.75;;
31402;SDS011;18039;52.188;21.024;2022-08-21T01:28:23;9.27;;;4.65;;
31402;SDS011;18039;52.188;21.024;2022-08-21T01:30:51;7.90;;;4.32;;
31402;SDS011;18039;52.188;21.024;2022-08-21T01:33:20;8.13;;;4.60;;
31402;SDS011;18039;52.188;21.024;2022-08-21T01:35:50;9.82;;;4.10;;
31402;SDS011;18039;52.188;21.024;2022-08-21T01:38:18;10.18;;;4.70;;
31402;SDS011;18039;52.188;21.024;2022-08-21T01:40:44;7.53;;;4.57;;
31402;SDS011;18039;52.188;21.024;2022-08-21T01:43:12;9.40;;;4.55;;
31402;SDS011;18039;52.188;21.024;2022-08-21T01:45:39;10.57;;;4.63;;
31402;SDS011;18039;52.188;21.024;2022-08-21T01:48:07;11.63;;;4.70;;
31402;SDS011;18039;52.188;21.024;2022-08-21T01:50:37;7.57;;;4.18;;
31402;SDS011;18039;52.188;21.024;2022-08-21T01:53:04;9.82;;;4.53;;
31402;SDS011;18039;52.188;21.024;2022-08-21T01:55:31;8.57;;;4.70;;
31402;SDS011;18039;52.188;21.024;2022-08-21T01:57:58;6.28;;;4.53;;
31402;SDS011;18039;52.188;21.024;2022-08-21T02:00:26;8.55;;;4.57;;
31402;SDS011;18039;52.188;21.024;2022-08-21T02:02:52;6.47;;;4.50;;
31402;SDS011;18039;52.188;21.024;2022-08-21T02:05:20;6.80;;;4.38;;
31402;SDS011;18039;52.188;21.024;2022-08-21T02:07:48;7.15;;;4.47;;
31402;SDS011;18039;52.188;21.024;2022-08-21T02:10:19;7.32;;;4.90;;
31402;SDS011;18039;52.188;21.024;2022-08-21T02:12:50;7.95;;;4.47;;
31402;SDS011;18039;52.188;21.024;2022-08-21T02:15:18;9.52;;;4.85;;
31402;SDS011;18039;52.188;21.024;2022-08-21T02:17:46;8.35;;;4.90;;
31402;SDS011;18039;52.188;21.024;2022-08-21T02:20:24;10.00;;;4.40;;
31402;SDS011;18039;52.188;21.024;2022-08-21T02:22:55;13.75;;;6.10;;
31402;SDS011;18039;52.188;21.024;2022-08-21T02:25:24;7.13;;;4.80;;
31402;SDS011;18039;52.188;21.024;2022-08-21T02:27:52;7.35;;;4.75;;
31402;SDS011;18039;52.188;21.024;2022-08-21T02:30:22;7.40;;;4.68;;
31402;SDS011;18039;52.188;21.024;2022-08-21T02:32:51;7.43;;;4.85;;
31402;SDS011;18039;52.188;21.024;2022-08-21T02:35:18;8.95;;;4.60;;
31402;SDS011;18039;52.188;21.024;2022-08-21T02:37:48;8.65;;;4.75;;
31402;SDS011;18039;52.188;21.024;2022-08-21T02:40:21;9.40;;;5.10;;
31402;SDS011;18039;52.188;21.024;2022-08-21T02:42:51;11.00;;;4.95;;
31402;SDS011;18039;52.188;21.024;2022-08-21T02:45:18;8.68;;;4.72;;
31402;SDS011;18039;52.188;21.024;2022-08-21T02:47:47;7.50;;;5.30;;
31402;SDS011;18039;52.188;21.024;2022-08-21T02:50:38;6.53;;;4.93;;
31402;SDS011;18039;52.188;21.024;2022-08-21T02:53:10;6.57;;;4.85;;
31402;SDS011;18039;52.188;21.024;2022-08-21T02:55:40;6.38;;;4.68;;
31402;SDS011;18039;52.188;21.024;2022-08-21T02:58:07;8.93;;;4.72;;
31402;SDS011;18039;52.188;21.024;2022-08-21T03:00:35;8.32;;;4.70;;
31402;SDS011;18039;52.188;21.024;2022-08-21T03:03:03;10.63;;;4.63;;
31402;SDS011;18039;52.188;21.024;2022-08-21T03:05:31;16.33;;;6.03;;
31402;SDS011;18039;52.188;21.024;2022-08-21T03:08:01;6.82;;;4.57;;
31402;SDS011;18039;52.188;21.024;2022-08-21T03:10:29;9.77;;;4.82;;
31402;SDS011;18039;52.188;21.024;2022-08-21T03:12:57;6.65;;;4.65;;
31402;SDS011;18039;52.188;21.024;2022-08-21T03:15:25;6.85;;;4.70;;
31402;SDS011;18039;52.188;21.024;2022-08-21T03:17:52;7.93;;;5.20;;
31402;SDS011;18039;52.188;21.024;2022-08-21T03:20:22;6.18;;;4.68;;
31402;SDS011;18039;52.188;21.024;2022-08-21T03:22:51;8.27;;;5.75;;
31402;SDS011;18039;52.188;21.024;2022-08-21T03:25:20;11.65;;;5.57;;
31402;SDS011;18039;52.188;21.024;2022-08-21T03:28:07;9.95;;;4.72;;
31402;SDS011;18039;52.188;21.024;2022-08-21T03:30:43;10.05;;;5.72;;
31402;SDS011;18039;52.188;21.024;2022-08-21T03:33:11;6.10;;;4.63;;
31402;SDS011;18039;52.188;21.024;2022-08-21T03:35:42;8.07;;;4.60;;
31402;SDS011;18039;52.188;21.024;2022-08-21T03:38:11;7.93;;;5.32;;
31402;SDS011;18039;52.188;21.024;2022-08-21T03:40:42;9.15;;;4.85;;
31402;SDS011;18039;52.188;21.024;2022-08-21T03:43:09;12.30;;;5.55;;
31402;SDS011;18039;52.188;21.024;2022-08-21T03:45:37;9.43;;;4.80;;
31402;SDS011;18039;52.188;21.024;2022-08-21T03:48:05;8.93;;;5.15;;
31402;SDS011;18039;52.188;21.024;2022-08-21T03:50:35;7.28;;;5.10;;
31402;SDS011;18039;52.188;21.024;2022-08-21T03:53:10;6.82;;;5.40;;
31402;SDS011;18039;52.188;21.024;2022-08-21T03:55:44;13.18;;;5.78;;
31402;SDS011;18039;52.188;21.024;2022-08-21T03:58:17;9.93;;;5.30;;
31402;SDS011;18039;52.188;21.024;2022-08-21T04:00:46;7.78;;;5.22;;
31402;SDS011;18039;52.188;21.024;2022-08-21T04:03:15;8.73;;;5.00;;
31402;SDS011;18039;52.188;21.024;2022-08-21T04:05:43;8.88;;;5.25;;
31402;SDS011;18039;52.188;21.024;2022-08-21T04:08:12;6.15;;;4.90;;
31402;SDS011;18039;52.188;21.024;2022-08-21T04:10:41;9.00;;;5.20;;
31402;SDS011;18039;52.188;21.024;2022-08-21T04:13:10;6.22;;;4.93;;
31402;SDS011;18039;52.188;21.024;2022-08-21T04:15:38;7.63;;;5.22;;
31402;SDS011;18039;52.188;21.024;2022-08-21T04:18:05;6.78;;;4.60;;
31402;SDS011;18039;52.188;21.024;2022-08-21T04:20:32;9.27;;;5.32;;
31402;SDS011;18039;52.188;21.024;2022-08-21T04:23:00;12.23;;;4.78;;
31402;SDS011;18039;52.188;21.024;2022-08-21T04:25:28;7.68;;;4.95;;
31402;SDS011;18039;52.188;21.024;2022-08-21T04:27:55;6.38;;;4.57;;
31402;SDS011;18039;52.188;21.024;2022-08-21T04:30:22;7.22;;;4.25;;
31402;SDS011;18039;52.188;21.024;2022-08-21T04:32:55;7.55;;;4.30;;
31402;SDS011;18039;52.188;21.024;2022-08-21T04:35:24;6.97;;;4.82;;
31402;SDS011;18039;52.188;21.024;2022-08-21T04:37:53;6.45;;;3.92;;
31402;SDS011;18039;52.188;21.024;2022-08-21T04:40:21;9.77;;;4.85;;
31402;SDS011;18039;52.188;21.024;2022-08-21T04:42:55;12.70;;;4.80;;
31402;SDS011;18039;52.188;21.024;2022-08-21T04:45:28;6.32;;;4.50;;
31402;SDS011;18039;52.188;21.024;2022-08-21T04:47:56;7.72;;;4.80;;
31402;SDS011;18039;52.188;21.024;2022-08-21T04:50:30;8.00;;;4.43;;
31402;SDS011;18039;52.188;21.024;2022-08-21T04:53:04;6.57;;;4.68;;
31402;SDS011;18039;52.188;21.024;2022-08-21T04:55:33;7.97;;;4.57;;
31402;SDS011;18039;52.188;21.024;2022-08-21T04:58:01;8.93;;;5.00;;
31402;SDS011;18039;52.188;21.024;2022-08-21T05:00:28;6.45;;;4.68;;
31402;SDS011;18039;52.188;21.024;2022-08-21T05:02:55;10.98;;;5.03;;
31402;SDS011;18039;52.188;21.024;2022-08-21T05:05:27;8.02;;;5.07;;
31402;SDS011;18039;52.188;21.024;2022-08-21T05:07:56;7.55;;;4.78;;
31402;SDS011;18039;52.188;21.024;2022-08-21T05:10:26;8.48;;;4.53;;
31402;SDS011;18039;52.188;21.024;2022-08-21T05:12:53;10.90;;;5.15;;
31402;SDS011;18039;52.188;21.024;2022-08-21T05:15:22;7.60;;;5.07;;
31402;SDS011;18039;52.188;21.024;2022-08-21T05:17:49;6.78;;;4.28;;
31402;SDS011;18039;52.188;21.024;2022-08-21T05:20:26;5.47;;;4.32;;
31402;SDS011;18039;52.188;21.024;2022-08-21T05:22:53;6.38;;;4.43;;
31402;SDS011;18039;52.188;21.024;2022-08-21T05:25:20;7.05;;;4.32;;
31402;SDS011;18039;52.188;21.024;2022-08-21T05:27:49;8.07;;;4.63;;
31402;SDS011;18039;52.188;21.024;2022-08-21T05:30:18;6.18;;;4.82;;
31402;SDS011;18039;52.188;21.024;2022-08-21T05:32:46;6.55;;;4.25;;
31402;SDS011;18039;52.188;21.024;2022-08-21T05:35:14;9.40;;;4.97;;
31402;SDS011;18039;52.188;21.024;2022-08-21T05:37:41;8.95;;;4.55;;
31402;SDS011;18039;52.188;21.024;2022-08-21T05:40:08;6.28;;;4.40;;
31402;SDS011;18039;52.188;21.024;2022-08-21T05:42:49;7.60;;;4.70;;
31402;SDS011;18039;52.188;21.024;2022-08-21T05:45:27;8.68;;;5.18;;
31402;SDS011;18039;52.188;21.024;2022-08-21T05:48:15;8.07;;;4.82;;
31402;SDS011;18039;52.188;21.024;2022-08-21T05:50:50;8.00;;;5.13;;
31402;SDS011;18039;52.188;21.024;2022-08-21T05:53:19;8.52;;;5.07;;
31402;SDS011;18039;52.188;21.024;2022-08-21T05:55:47;7.45;;;5.18;;
31402;SDS011;18039;52.188;21.024;2022-08-21T05:58:14;9.45;;;4.63;;
31402;SDS011;18039;52.188;21.024;2022-08-21T06:00:44;8.27;;;4.53;;
31402;SDS011;18039;52.188;21.024;2022-08-21T06:03:15;9.25;;;4.75;;
31402;SDS011;18039;52.188;21.024;2022-08-21T06:05:50;10.68;;;4.32;;
31402;SDS011;18039;52.188;21.024;2022-08-21T06:08:18;5.88;;;4.40;;
31402;SDS011;18039;52.188;21.024;2022-08-21T06:10:46;12.23;;;4.97;;
31402;SDS011;18039;52.188;21.024;2022-08-21T06:13:15;6.47;;;5.15;;
31402;SDS011;18039;52.188;21.024;2022-08-21T06:15:43;11.02;;;5.03;;
31402;SDS011;18039;52.188;21.024;2022-08-21T06:18:11;6.80;;;4.28;;
31402;SDS011;18039;52.188;21.024;2022-08-21T06:20:38;6.97;;;4.65;;
31402;SDS011;18039;52.188;21.024;2022-08-21T06:23:06;7.85;;;4.70;;
31402;SDS011;18039;52.188;21.024;2022-08-21T06:25:33;9.23;;;4.88;;
31402;SDS011;18039;52.188;21.024;2022-08-21T06:28:05;8.10;;;4.40;;
31402;SDS011;18039;52.188;21.024;2022-08-21T06:30:36;6.20;;;4.25;;
31402;SDS011;18039;52.188;21.024;2022-08-21T06:33:05;8.50;;;4.55;;
31402;SDS011;18039;52.188;21.024;2022-08-21T06:35:34;7.38;;;4.18;;
31402;SDS011;18039;52.188;21.024;2022-08-21T06:38:02;10.02;;;6.43;;
31402;SDS011;18039;52.188;21.024;2022-08-21T06:40:31;5.13;;;3.95;;
31402;SDS011;18039;52.188;21.024;2022-08-21T06:43:08;6.55;;;4.55;;
31402;SDS011;18039;52.188;21.024;2022-08-21T06:45:41;8.73;;;4.63;;
31402;SDS011;18039;52.188;21.024;2022-08-21T06:48:08;8.07;;;4.38;;
31402;SDS011;18039;52.188;21.024;2022-08-21T06:50:36;10.85;;;5.10;;
31402;SDS011;18039;52.188;21.024;2022-08-21T06:53:07;7.68;;;4.80;;
31402;SDS011;18039;52.188;21.024;2022-08-21T06:55:37;11.60;;;5.28;;
31402;SDS011;18039;52.188;21.024;2022-08-21T06:58:05;10.00;;;4.75;;
31402;SDS011;18039;52.188;21.024;2022-08-21T07:00:33;7.50;;;5.07;;
31402;SDS011;18039;52.188;21.024;2022-08-21T07:03:00;9.68;;;5.28;;
31402;SDS011;18039;52.188;21.024;2022-08-21T07:05:28;6.65;;;4.95;;
31402;SDS011;18039;52.188;21.024;2022-08-21T07:07:56;10.38;;;4.88;;
31402;SDS011;18039;52.188;21.024;2022-08-21T07:10:24;6.60;;;5.00;;
31402;SDS011;18039;52.188;21.024;2022-08-21T07:12:52;7.55;;;5.03;;
31402;SDS011;18039;52.188;21.024;2022-08-21T07:15:30;7.13;;;5.28;;
31402;SDS011;18039;52.188;21.024;2022-08-21T07:17:57;6.72;;;4.70;;
31402;SDS011;18039;52.188;21.024;2022-08-21T07:20:26;7.85;;;4.97;;
31402;SDS011;18039;52.188;21.024;2022-08-21T07:22:55;9.10;;;5.15;;
31402;SDS011;18039;52.188;21.024;2022-08-21T07:25:26;8.18;;;5.57;;
31402;SDS011;18039;52.188;21.024;2022-08-21T07:27:53;8.43;;;5.20;;
31402;SDS011;18039;52.188;21.024;2022-08-21T07:30:21;7.50;;;5.10;;
31402;SDS011;18039;52.188;21.024;2022-08-21T07:32:48;6.05;;;4.80;;
31402;SDS011;18039;52.188;21.024;2022-08-21T07:35:16;6.55;;;4.40;;
31402;SDS011;18039;52.188;21.024;2022-08-21T07:37:44;9.25;;;4.78;;
31402;SDS011;18039;52.188;21.024;2022-08-21T07:40:12;8.82;;;4.50;;
31402;SDS011;18039;52.188;21.024;2022-08-21T07:42:43;8.38;;;4.95;;
31402;SDS011;18039;52.188;21.024;2022-08-21T07:45:12;10.00;;;5.03;;
31402;SDS011;18039;52.188;21.024;2022-08-21T07:47:40;8.65;;;4.68;;
31402;SDS011;18039;52.188;21.024;2022-08-21T07:50:09;5.93;;;4.30;;
31402;SDS011;18039;52.188;21.024;2022-08-21T07:52:39;7.18;;;4.95;;
31402;SDS011;18039;52.188;21.024;2022-08-21T07:55:07;8.85;;;4.72;;
31402;SDS011;18039;52.188;21.024;2022-08-21T07:57:36;6.28;;;4.40;;
31402;SDS011;18039;52.188;21.024;2022-08-21T08:00:04;7.32;;;4.25;;
31402;SDS011;18039;52.188;21.024;2022-08-21T08:02:39;7.25;;;4.70;;
31402;SDS011;18039;52.188;21.024;2022-08-21T08:05:09;5.93;;;4.07;;
31402;SDS011;18039;52.188;21.024;2022-08-21T08:07:38;6.32;;;4.60;;
31402;SDS011;18039;52.188;21.024;2022-08-21T08:10:06;6.13;;;4.63;;
31402;SDS011;18039;52.188;21.024;2022-08-21T08:12:38;9.48;;;5.15;;
31402;SDS011;18039;52.188;21.024;2022-08-21T08:15:07;7.20;;;4.63;;
31402;SDS011;18039;52.188;21.024;2022-08-21T08:17:37;7.28;;;4.65;;
31402;SDS011;18039;52.188;21.024;2022-08-21T08:20:06;9.35;;;4.78;;
31402;SDS011;18039;52.188;21.024;2022-08-21T08:22:35;8.80;;;4.72;;
31402;SDS011;18039;52.188;21.024;2022-08-21T08:25:05;8.52;;;4.68;;
31402;SDS011;18039;52.188;21.024;2022-08-21T08:27:35;8.18;;;4.50;;
31402;SDS011;18039;52.188;21.024;2022-08-21T08:30:04;10.18;;;4.65;;
31402;SDS011;18039;52.188;21.024;2022-08-21T08:32:32;7.13;;;4.35;;
31402;SDS011;18039;52.188;21.024;2022-08-21T08:35:00;9.02;;;4.50;;
31402;SDS011;18039;52.188;21.024;2022-08-21T08:37:27;5.82;;;4.13;;
31402;SDS011;18039;52.188;21.024;2022-08-21T08:40:00;6.72;;;4.25;;
31402;SDS011;18039;52.188;21.024;2022-08-21T08:42:31;7.25;;;4.40;;
31402;SDS011;18039;52.188;21.024;2022-08-21T08:45:14;11.90;;;4.72;;
31402;SDS011;18039;52.188;21.024;2022-08-21T08:47:49;5.32;;;4.10;;
31402;SDS011;18039;52.188;21.024;2022-08-21T08:50:38;5.93;;;3.70;;
31402;SDS011;18039;52.188;21.024;2022-08-21T08:53:15;6.90;;;4.20;;
31402;SDS011;18039;52.188;21.024;2022-08-21T08:55:47;10.63;;;4.43;;
31402;SDS011;18039;52.188;21.024;2022-08-21T08:58:25;10.57;;;4.55;;
31402;SDS011;18039;52.188;21.024;2022-08-21T09:00:58;7.80;;;3.90;;
31402;SDS011;18039;52.188;21.024;2022-08-21T09:03:26;5.60;;;4.00;;
31402;SDS011;18039;52.188;21.024;2022-08-21T09:11:02;5.25;;;4.00;;
31402;SDS011;18039;52.188;21.024;2022-08-21T09:13:36;7.18;;;4.10;;
31402;SDS011;18039;52.188;21.024;2022-08-21T09:24:59;5.43;;;3.50;;
31402;SDS011;18039;52.188;21.024;2022-08-21T09:27:34;7.63;;;3.72;;
31402;SDS011;18039;52.188;21.024;2022-08-21T09:30:03;5.78;;;3.85;;
31402;SDS011;18039;52.188;21.024;2022-08-21T09:32:34;5.53;;;3.80;;
31402;SDS011;18039;52.188;21.024;2022-08-21T09:37:34;6.53;;;3.33;;
31402;SDS011;18039;52.188;21.024;2022-08-21T09:40:16;5.75;;;3.20;;
31402;SDS011;18039;52.188;21.024;2022-08-21T09:42:55;4.35;;;3.30;;
31402;SDS011;18039;52.188;21.024;2022-08-21T09:45:30;5.70;;;3.25;;
31402;SDS011;18039;52.188;21.024;2022-08-21T09:48:12;5.30;;;3.25;;
31402;SDS011;18039;52.188;21.024;2022-08-21T09:50:52;4.72;;;3.30;;
31402;SDS011;18039;52.188;21.024;2022-08-21T09:53:31;4.85;;;3.75;;
31402;SDS011;18039;52.188;21.024;2022-08-21T09:56:04;6.45;;;3.17;;
31402;SDS011;18039;52.188;21.024;2022-08-21T09:58:59;4.22;;;3.28;;
31402;SDS011;18039;52.188;21.024;2022-08-21T10:01:26;5.63;;;3.30;;
31402;SDS011;18039;52.188;21.024;2022-08-21T10:04:04;11.35;;;3.72;;
31402;SDS011;18039;52.188;21.024;2022-08-21T10:06:34;6.38;;;3.15;;
31402;SDS011;18039;52.188;21.024;2022-08-21T10:09:06;8.23;;;3.33;;
31402;SDS011;18039;52.188;21.024;2022-08-21T10:20:04;4.82;;;3.40;;
31402;SDS011;18039;52.188;21.024;2022-08-21T10:22:41;6.60;;;3.40;;
31402;SDS011;18039;52.188;21.024;2022-08-21T10:25:44;5.70;;;3.15;;
31402;SDS011;18039;52.188;21.024;2022-08-21T10:28:40;6.60;;;3.20;;
31402;SDS011;18039;52.188;21.024;2022-08-21T10:31:26;5.80;;;3.38;;
31402;SDS011;18039;52.188;21.024;2022-08-21T10:43:05;4.25;;;3.20;;
31402;SDS011;18039;52.188;21.024;2022-08-21T10:51:10;4.88;;;3.55;;
31402;SDS011;18039;52.188;21.024;2022-08-21T10:56:31;7.35;;;2.85;;
31402;SDS011;18039;52.188;21.024;2022-08-21T11:01:44;6.70;;;2.90;;
31402;SDS011;18039;52.188;21.024;2022-08-21T11:04:25;5.97;;;2.90;;
31402;SDS011;18039;52.188;21.024;2022-08-21T11:10:15;5.85;;;3.10;;
31402;SDS011;18039;52.188;21.024;2022-08-21T11:12:52;7.60;;;2.80;;
31402;SDS011;18039;52.188;21.024;2022-08-21T11:15:38;3.42;;;2.75;;
31402;SDS011;18039;52.188;21.024;2022-08-21T11:23:54;5.75;;;2.95;;
31402;SDS011;18039;52.188;21.024;2022-08-21T11:26:45;4.57;;;2.88;;
31402;SDS011;18039;52.188;21.024;2022-08-21T11:29:23;9.77;;;2.90;;
31402;SDS011;18039;52.188;21.024;2022-08-21T11:34:46;3.85;;;2.55;;
31402;SDS011;18039;52.188;21.024;2022-08-21T11:43:16;10.05;;;2.95;;
31402;SDS011;18039;52.188;21.024;2022-08-21T11:45:58;8.77;;;3.13;;
31402;SDS011;18039;52.188;21.024;2022-08-21T11:51:09;9.10;;;2.78;;
31402;SDS011;18039;52.188;21.024;2022-08-21T11:54:03;6.35;;;2.88;;
31402;SDS011;18039;52.188;21.024;2022-08-21T11:56:45;6.07;;;3.00;;
31402;SDS011;18039;52.188;21.024;2022-08-21T11:59:28;4.20;;;2.50;;
31402;SDS011;18039;52.188;21.024;2022-08-21T12:02:09;3.38;;;2.50;;
31402;SDS011;18039;52.188;21.024;2022-08-21T12:04:49;5.90;;;2.40;;
31402;SDS011;18039;52.188;21.024;2022-08-21T12:07:33;4.95;;;2.97;;
31402;SDS011;18039;52.188;21.024;2022-08-21T12:10:06;3.60;;;2.10;;
31402;SDS011;18039;52.188;21.024;2022-08-21T12:12:41;4.72;;;2.40;;
31402;SDS011;18039;52.188;21.024;2022-08-21T12:15:14;3.35;;;2.35;;
31402;SDS011;18039;52.188;21.024;2022-08-21T12:18:01;11.35;;;2.75;;
31402;SDS011;18039;52.188;21.024;2022-08-21T12:25:43;4.80;;;2.42;;
31402;SDS011;18039;52.188;21.024;2022-08-21T12:28:15;6.13;;;2.45;;
31402;SDS011;18039;52.188;21.024;2022-08-21T12:30:48;4.35;;;2.38;;
31402;SDS011;18039;52.188;21.024;2022-08-21T12:35:53;4.55;;;2.13;;
31402;SDS011;18039;52.188;21.024;2022-08-21T12:38:46;6.93;;;2.70;;
31402;SDS011;18039;52.188;21.024;2022-08-21T12:41:27;4.53;;;2.50;;
31402;SDS011;18039;52.188;21.024;2022-08-21T12:43:59;3.80;;;2.38;;
31402;SDS011;18039;52.188;21.024;2022-08-21T12:46:36;5.80;;;2.72;;
31402;SDS011;18039;52.188;21.024;2022-08-21T12:49:12;5.30;;;3.00;;
31402;SDS011;18039;52.188;21.024;2022-08-21T12:54:26;5.70;;;2.70;;
31402;SDS011;18039;52.188;21.024;2022-08-21T12:56:59;5.18;;;3.00;;
31402;SDS011;18039;52.188;21.024;2022-08-21T12:59:30;3.47;;;2.40;;
31402;SDS011;18039;52.188;21.024;2022-08-21T13:01:58;4.70;;;2.33;;
31402;SDS011;18039;52.188;21.024;2022-08-21T13:04:38;4.43;;;2.67;;
31402;SDS011;18039;52.188;21.024;2022-08-21T13:07:08;7.53;;;2.78;;
31402;SDS011;18039;52.188;21.024;2022-08-21T13:09:41;7.28;;;2.42;;
31402;SDS011;18039;52.188;21.024;2022-08-21T13:12:13;4.63;;;2.72;;
31402;SDS011;18039;52.188;21.024;2022-08-21T13:14:42;5.32;;;2.13;;
31402;SDS011;18039;52.188;21.024;2022-08-21T13:17:14;4.88;;;2.75;;
31402;SDS011;18039;52.188;21.024;2022-08-21T13:19:58;7.20;;;2.75;;
31402;SDS011;18039;52.188;21.024;2022-08-21T13:22:41;6.25;;;2.38;;
31402;SDS011;18039;52.188;21.024;2022-08-21T13:25:11;7.78;;;2.30;;
31402;SDS011;18039;52.188;21.024;2022-08-21T13:27:42;5.35;;;2.35;;
31402;SDS011;18039;52.188;21.024;2022-08-21T13:30:17;3.72;;;2.58;;
31402;SDS011;18039;52.188;21.024;2022-08-21T13:32:48;3.63;;;2.63;;
31402;SDS011;18039;52.188;21.024;2022-08-21T13:35:19;6.10;;;2.83;;
31402;SDS011;18039;52.188;21.024;2022-08-21T13:37:48;5.03;;;2.53;;
31402;SDS011;18039;52.188;21.024;2022-08-21T13:40:20;5.63;;;3.03;;
31402;SDS011;18039;52.188;21.024;2022-08-21T13:42:54;4.53;;;2.47;;
31402;SDS011;18039;52.188;21.024;2022-08-21T13:45:27;2.95;;;2.20;;
31402;SDS011;18039;52.188;21.024;2022-08-21T13:47:59;3.10;;;2.60;;
31402;SDS011;18039;52.188;21.024;2022-08-21T13:50:33;4.65;;;3.00;;
31402;SDS011;18039;52.188;21.024;2022-08-21T13:53:04;10.32;;;2.75;;
31402;SDS011;18039;52.188;21.024;2022-08-21T13:55:38;8.27;;;2.83;;
31402;SDS011;18039;52.188;21.024;2022-08-21T13:58:09;4.25;;;2.58;;
31402;SDS011;18039;52.188;21.024;2022-08-21T14:00:48;6.13;;;3.25;;
31402;SDS011;18039;52.188;21.024;2022-08-21T14:03:40;6.70;;;2.70;;
31402;SDS011;18039;52.188;21.024;2022-08-21T14:06:12;8.05;;;2.63;;
31402;SDS011;18039;52.188;21.024;2022-08-21T14:08:57;10.18;;;2.85;;
31402;SDS011;18039;52.188;21.024;2022-08-21T14:11:28;3.45;;;2.78;;
31402;SDS011;18039;52.188;21.024;2022-08-21T14:14:02;4.15;;;2.63;;
31402;SDS011;18039;52.188;21.024;2022-08-21T14:16:57;4.43;;;3.20;;
31402;SDS011;18039;52.188;21.024;2022-08-21T14:19:26;3.50;;;2.47;;
31402;SDS011;18039;52.188;21.024;2022-08-21T14:25:14;4.28;;;2.65;;
31402;SDS011;18039;52.188;21.024;2022-08-21T14:30:54;3.45;;;2.65;;
31402;SDS011;18039;52.188;21.024;2022-08-21T14:33:30;5.75;;;2.78;;
31402;SDS011;18039;52.188;21.024;2022-08-21T14:35:59;4.70;;;2.55;;
31402;SDS011;18039;52.188;21.024;2022-08-21T14:38:28;7.13;;;3.22;;
31402;SDS011;18039;52.188;21.024;2022-08-21T14:40:59;8.43;;;2.90;;
31402;SDS011;18039;52.188;21.024;2022-08-21T14:43:35;3.53;;;2.40;;
31402;SDS011;18039;52.188;21.024;2022-08-21T14:46:02;5.28;;;2.88;;
31402;SDS011;18039;52.188;21.024;2022-08-21T14:48:29;4.28;;;2.53;;
31402;SDS011;18039;52.188;21.024;2022-08-21T14:50:56;4.10;;;2.33;;
31402;SDS011;18039;52.188;21.024;2022-08-21T14:53:26;5.28;;;2.67;;
31402;SDS011;18039;52.188;21.024;2022-08-21T14:55:53;3.53;;;2.15;;
31402;SDS011;18039;52.188;21.024;2022-08-21T14:58:38;5.57;;;2.65;;
31402;SDS011;18039;52.188;21.024;2022-08-21T15:03:36;5.50;;;2.45;;
31402;SDS011;18039;52.188;21.024;2022-08-21T15:06:04;3.30;;;2.22;;
31402;SDS011;18039;52.188;21.024;2022-08-21T15:08:33;3.78;;;2.72;;
31402;SDS011;18039;52.188;21.024;2022-08-21T15:11:00;4.65;;;2.35;;
31402;SDS011;18039;52.188;21.024;2022-08-21T15:13:41;4.28;;;2.45;;
31402;SDS011;18039;52.188;21.024;2022-08-21T15:16:09;8.52;;;2.40;;
31402;SDS011;18039;52.188;21.024;2022-08-21T15:18:38;6.55;;;2.22;;
31402;SDS011;18039;52.188;21.024;2022-08-21T15:21:05;4.25;;;2.53;;
31402;SDS011;18039;52.188;21.024;2022-08-21T15:23:32;3.70;;;2.40;;
31402;SDS011;18039;52.188;21.024;2022-08-21T15:25:59;3.20;;;2.22;;
31402;SDS011;18039;52.188;21.024;2022-08-21T15:28:28;6.13;;;2.63;;
31402;SDS011;18039;52.188;21.024;2022-08-21T15:30:58;5.13;;;2.28;;
31402;SDS011;18039;52.188;21.024;2022-08-21T15:33:26;5.40;;;2.03;;
31402;SDS011;18039;52.188;21.024;2022-08-21T15:35:54;2.88;;;1.90;;
31402;SDS011;18039;52.188;21.024;2022-08-21T15:38:21;2.95;;;1.80;;
31402;SDS011;18039;52.188;21.024;2022-08-21T15:40:48;4.05;;;2.03;;
31402;SDS011;18039;52.188;21.024;2022-08-21T15:43:22;3.42;;;1.88;;
31402;SDS011;18039;52.188;21.024;2022-08-21T15:45:57;5.90;;;2.90;;
31402;SDS011;18039;52.188;21.024;2022-08-21T15:48:26;3.05;;;2.03;;
31402;SDS011;18039;52.188;21.024;2022-08-21T15:50:54;6.50;;;2.35;;
31402;SDS011;18039;52.188;21.024;2022-08-21T15:53:22;3.47;;;2.28;;
31402;SDS011;18039;52.188;21.024;2022-08-21T15:55:49;7.20;;;2.83;;
31402;SDS011;18039;52.188;21.024;2022-08-21T15:58:16;6.45;;;3.28;;
31402;SDS011;18039;52.188;21.024;2022-08-21T16:00:44;6.22;;;3.58;;
31402;SDS011;18039;52.188;21.024;2022-08-21T16:03:14;6.38;;;3.10;;
31402;SDS011;18039;52.188;21.024;2022-08-21T16:05:44;4.90;;;3.35;;
31402;SDS011;18039;52.188;21.024;2022-08-21T16:08:12;8.70;;;3.53;;
31402;SDS011;18039;52.188;21.024;2022-08-21T16:10:39;5.88;;;3.15;;
31402;SDS011;18039;52.188;21.024;2022-08-21T16:13:07;3.58;;;3.10;;
31402;SDS011;18039;52.188;21.024;2022-08-21T16:15:41;3.78;;;3.33;;
31402;SDS011;18039;52.188;21.024;2022-08-21T16:18:08;4.03;;;3.03;;
31402;SDS011;18039;52.188;21.024;2022-08-21T16:20:36;4.97;;;3.42;;
31402;SDS011;18039;52.188;21.024;2022-08-21T16:23:04;4.13;;;3.00;;
31402;SDS011;18039;52.188;21.024;2022-08-21T16:25:33;7.72;;;3.40;;